createdAt,value
2017-05-28T13:51:37.271Z,205
2017-05-28T13:52:37.867Z,195
2017-05-28T13:53:37.922Z,195
2017-05-28T13:54:37.884Z,190
2017-05-28T13:55:37.911Z,180
2017-05-28T13:56:37.564Z,165
2017-05-28T13:57:37.880Z,175
2017-05-28T13:58:37.909Z,180
2017-05-28T13:59:38.224Z,185
2017-05-28T14:00:37.588Z,180
2017-05-28T14:01:37.275Z,180
2017-05-28T14:02:37.924Z,180
2017-05-28T14:03:37.935Z,175
2017-05-28T14:04:37.921Z,175
2017-05-28T14:05:37.616Z,175
2017-05-28T14:06:38.258Z,180
2017-05-28T14:07:37.958Z,180
2017-05-28T14:08:38.368Z,180
2017-05-28T14:09:37.313Z,180
2017-05-28T14:10:37.963Z,185
2017-05-28T14:11:37.976Z,185
2017-05-28T14:12:37.971Z,185
2017-05-28T14:13:38.306Z,190
2017-05-28T14:14:37.327Z,195
2017-05-28T14:15:37.994Z,200
2017-05-28T14:16:38.308Z,205
2017-05-28T14:17:38.020Z,210
2017-05-28T14:18:38.026Z,210
2017-05-28T14:19:37.711Z,215
2017-05-28T14:20:38.037Z,215
2017-05-28T14:21:38.007Z,215
2017-05-28T14:22:37.728Z,215
2017-05-28T14:23:37.697Z,220
2017-05-28T14:24:37.702Z,220
2017-05-28T14:25:38.060Z,220
2017-05-28T14:26:38.735Z,215
2017-05-28T14:27:37.719Z,210
2017-05-28T14:28:38.363Z,205
2017-05-28T14:29:38.034Z,200
2017-05-28T14:30:38.149Z,195
2017-05-28T14:31:38.055Z,190
2017-05-28T14:32:37.769Z,185
2017-05-28T14:33:38.417Z,185
2017-05-28T14:34:37.115Z,185
2017-05-28T14:35:37.770Z,180
2017-05-28T14:36:38.099Z,175
2017-05-28T14:37:38.088Z,170
2017-05-28T14:38:38.104Z,170
2017-05-28T14:39:37.774Z,165
2017-05-28T14:40:38.104Z,165
2017-05-28T14:41:38.123Z,165
2017-05-28T14:42:37.162Z,160
2017-05-28T14:43:38.141Z,160
2017-05-28T14:44:37.847Z,160
2017-05-28T14:45:37.499Z,160
2017-05-28T14:46:37.813Z,160
2017-05-28T14:47:38.146Z,160
2017-05-28T14:48:38.487Z,160
2017-05-28T14:49:38.474Z,160
2017-05-28T14:50:38.169Z,160
2017-05-28T14:51:38.158Z,160
2017-05-28T14:52:37.538Z,160
2017-05-28T14:53:38.170Z,160
2017-05-28T14:54:37.855Z,160
2017-05-28T14:55:38.573Z,160
2017-05-28T14:56:37.883Z,160
2017-05-28T14:57:38.210Z,160
2017-05-28T14:58:37.880Z,165
2017-05-28T14:59:38.580Z,165
2017-05-28T15:00:37.886Z,165
2017-05-28T15:01:38.208Z,165
2017-05-28T15:02:38.224Z,165
2017-05-28T15:03:38.540Z,165
2017-05-28T15:04:38.551Z,170
2017-05-28T15:05:37.905Z,165
2017-05-28T15:06:37.964Z,170
2017-05-28T15:07:38.262Z,170
2017-05-28T15:08:37.926Z,170
2017-05-28T15:09:37.929Z,170
2017-05-28T15:10:38.255Z,170
2017-05-28T15:11:38.261Z,170
2017-05-28T15:12:38.598Z,170
2017-05-28T15:13:38.610Z,175
2017-05-28T15:14:38.332Z,175
2017-05-28T15:15:38.286Z,175
2017-05-28T15:16:38.285Z,175
2017-05-28T15:17:37.967Z,175
2017-05-28T15:18:37.971Z,180
2017-05-28T15:19:37.678Z,180
2017-05-28T15:20:37.662Z,180
2017-05-28T15:21:38.649Z,180
2017-05-28T15:22:37.988Z,180
2017-05-28T15:23:38.026Z,175
2017-05-28T15:24:38.334Z,180
2017-05-28T15:25:38.343Z,175
2017-05-28T15:26:38.336Z,175
2017-05-28T15:27:38.356Z,175
2017-05-28T15:28:38.023Z,175
2017-05-28T15:29:38.674Z,175
2017-05-28T15:30:38.061Z,175
2017-05-28T15:31:37.397Z,170
2017-05-28T15:32:37.747Z,170
2017-05-28T15:33:40.190Z,170
2017-05-28T15:34:38.723Z,170
2017-05-28T15:35:38.074Z,170
2017-05-28T15:36:38.714Z,165
2017-05-28T15:37:38.097Z,170
2017-05-28T15:38:38.718Z,170
2017-05-28T15:39:38.086Z,170
2017-05-28T15:40:38.780Z,165
2017-05-28T15:41:38.751Z,165
2017-05-28T15:42:38.422Z,165
2017-05-28T15:43:38.120Z,165
2017-05-28T15:44:38.101Z,165
2017-05-28T15:45:38.443Z,165
2017-05-28T15:46:38.121Z,165
2017-05-28T15:47:38.437Z,165
2017-05-28T15:48:38.772Z,165
2017-05-28T15:49:38.450Z,165
2017-05-28T15:50:38.146Z,160
2017-05-28T15:51:38.808Z,160
2017-05-28T15:52:38.152Z,160
2017-05-28T15:53:38.469Z,160
2017-05-28T15:54:38.826Z,160
2017-05-28T15:55:38.186Z,160
2017-05-28T15:56:38.810Z,160
2017-05-28T15:57:38.510Z,160
2017-05-28T15:58:38.506Z,160
2017-05-28T15:59:38.901Z,160
2017-05-28T16:00:38.847Z,160
2017-05-28T16:01:38.511Z,160
2017-05-28T16:02:38.860Z,160
2017-05-28T16:03:38.598Z,160
2017-05-28T16:04:38.860Z,160
2017-05-28T16:05:38.540Z,160
2017-05-28T16:06:38.558Z,160
2017-05-28T16:07:38.233Z,160
2017-05-28T16:08:38.255Z,160
2017-05-28T16:09:38.556Z,160
2017-05-28T16:10:38.910Z,160
2017-05-28T16:11:37.949Z,160
2017-05-28T16:12:37.924Z,160
2017-05-28T16:13:38.251Z,160
2017-05-28T16:14:38.598Z,160
2017-05-28T16:15:37.974Z,160
2017-05-28T16:16:38.913Z,160
2017-05-28T16:17:38.938Z,160
2017-05-28T16:18:38.274Z,160
2017-05-28T16:19:38.279Z,160
2017-05-28T16:20:38.286Z,160
2017-05-28T16:21:38.622Z,160
2017-05-28T16:22:38.373Z,155
2017-05-28T16:23:38.654Z,155
2017-05-28T16:24:38.679Z,155
2017-05-28T16:25:38.308Z,155
2017-05-28T16:26:38.971Z,155
2017-05-28T16:27:38.966Z,155
2017-05-28T16:28:38.968Z,155
2017-05-28T16:29:38.700Z,155
2017-05-28T16:30:38.350Z,155
2017-05-28T16:31:38.345Z,155
2017-05-28T16:32:38.997Z,155
2017-05-28T16:33:38.679Z,155
2017-05-28T16:34:39.005Z,155
2017-05-28T16:35:39.259Z,155
2017-05-28T16:36:38.388Z,155
2017-05-28T16:37:38.650Z,155
2017-05-28T16:38:39.058Z,155
2017-05-28T16:39:38.707Z,155
2017-05-28T16:40:38.383Z,150
2017-05-28T16:41:39.058Z,155
2017-05-28T16:42:39.073Z,165
2017-05-28T16:43:39.080Z,170
2017-05-28T16:44:39.061Z,170
2017-05-28T16:45:38.768Z,160
2017-05-28T16:46:39.556Z,155
2017-05-28T16:47:38.742Z,150
2017-05-28T16:48:39.103Z,150
2017-05-28T16:49:39.087Z,150
2017-05-28T16:50:38.467Z,150
2017-05-28T16:51:38.784Z,150
2017-05-28T16:52:38.788Z,150
2017-05-28T16:53:39.100Z,150
2017-05-28T16:54:37.821Z,150
2017-05-28T16:55:39.114Z,150
2017-05-28T16:56:38.812Z,150
2017-05-28T16:57:39.195Z,150
2017-05-28T16:58:39.132Z,155
2017-05-28T16:59:38.803Z,155
2017-05-28T17:00:38.479Z,160
2017-05-28T17:01:38.507Z,160
2017-05-28T17:02:38.979Z,155
2017-05-28T17:03:39.423Z,160
2017-05-28T17:04:38.968Z,160
2017-05-28T17:05:40.120Z,175
2017-05-28T17:06:38.655Z,210
2017-05-28T17:07:39.004Z,255
2017-05-28T17:08:38.783Z,270
2017-05-28T17:09:38.816Z,275
2017-05-28T17:10:39.485Z,290
2017-05-28T17:11:39.293Z,285
2017-05-28T17:12:39.146Z,285
2017-05-28T17:13:39.585Z,280
2017-05-28T17:14:39.535Z,275
2017-05-28T17:15:39.319Z,280
2017-05-28T17:16:38.968Z,285
2017-05-28T17:17:39.441Z,280
2017-05-28T17:18:39.114Z,285
2017-05-28T17:19:38.525Z,270
2017-05-28T17:20:39.251Z,255
2017-05-28T17:21:38.809Z,240
2017-05-28T17:22:38.999Z,245
2017-05-28T17:23:39.241Z,240
2017-05-28T17:24:38.950Z,240
2017-05-28T17:25:39.348Z,240
2017-05-28T17:26:39.030Z,235
2017-05-28T17:27:40.694Z,235
2017-05-28T17:28:39.379Z,235
2017-05-28T17:29:39.328Z,235
2017-05-28T17:30:39.043Z,230
2017-05-28T17:31:38.884Z,230
2017-05-28T17:32:38.992Z,215
2017-05-28T17:33:39.586Z,190
2017-05-28T17:34:39.346Z,200
2017-05-28T17:35:39.683Z,225
2017-05-28T17:36:39.363Z,220
2017-05-28T17:37:39.622Z,205
2017-05-28T17:38:39.686Z,215
2017-05-28T17:39:39.258Z,210
2017-05-28T17:40:38.791Z,210
2017-05-28T17:41:39.750Z,210
2017-05-28T17:42:39.026Z,205
2017-05-28T17:43:39.457Z,200
2017-05-28T17:44:38.829Z,200
2017-05-28T17:45:38.729Z,195
2017-05-28T17:46:39.504Z,185
2017-05-28T17:47:39.321Z,185
2017-05-28T17:48:39.639Z,175
2017-05-28T17:49:39.400Z,170
2017-05-28T17:50:39.492Z,170
2017-05-28T17:51:39.108Z,170
2017-05-28T17:52:39.394Z,165
2017-05-28T17:53:39.890Z,150
2017-05-28T17:54:39.572Z,155
2017-05-28T17:55:39.883Z,150
2017-05-28T17:56:39.695Z,140
2017-05-28T17:57:39.629Z,130
2017-05-28T17:58:38.789Z,130
2017-05-28T17:59:39.514Z,120
2017-05-28T18:00:39.737Z,115
2017-05-28T18:01:39.828Z,110
2017-05-28T18:02:40.728Z,105
2017-05-28T18:03:40.486Z,105
2017-05-28T18:04:39.281Z,100
2017-05-28T18:05:38.907Z,90
2017-05-28T18:06:39.863Z,85
2017-05-28T18:07:40.222Z,85
2017-05-28T18:08:39.626Z,80
2017-05-28T18:09:40.057Z,80
2017-05-28T18:10:39.298Z,75
2017-05-28T18:11:39.633Z,75
2017-05-28T18:12:40.681Z,70
2017-05-28T18:13:40.270Z,70
2017-05-28T18:14:39.543Z,70
2017-05-28T18:15:39.259Z,70
2017-05-28T18:16:39.724Z,70
2017-05-28T18:17:39.699Z,65
2017-05-28T18:18:40.224Z,65
2017-05-28T18:19:40.075Z,65
2017-05-28T18:20:40.249Z,65
2017-05-28T18:21:40.185Z,65
2017-05-28T18:22:39.669Z,65
2017-05-28T18:23:39.585Z,65
2017-05-28T18:24:39.814Z,60
2017-05-28T18:25:40.028Z,60
2017-05-28T18:26:40.363Z,60
2017-05-28T18:27:39.622Z,60
2017-05-28T18:28:39.812Z,60
2017-05-28T18:29:40.691Z,60
2017-05-28T18:30:39.275Z,55
2017-05-28T18:31:39.644Z,55
2017-05-28T18:32:41.119Z,55
2017-05-28T18:33:39.774Z,50
2017-05-28T18:34:39.515Z,50
2017-05-28T18:35:39.756Z,45
2017-05-28T18:36:40.586Z,45
2017-05-28T18:37:39.988Z,40
2017-05-28T18:38:39.459Z,40
2017-05-28T18:39:38.728Z,40
2017-05-28T18:40:40.923Z,35
2017-05-28T18:41:39.164Z,35
2017-05-28T18:42:40.769Z,30
2017-05-28T18:43:39.465Z,30
2017-05-28T18:44:39.794Z,30
2017-05-28T18:45:40.005Z,25
2017-05-28T18:46:39.443Z,25
2017-05-28T18:47:39.726Z,25
2017-05-28T18:48:39.200Z,25
2017-05-28T18:49:39.265Z,20
2017-05-28T18:50:38.854Z,20
2017-05-28T18:51:39.924Z,20
2017-05-28T18:52:39.744Z,15
2017-05-28T18:53:39.228Z,15
2017-05-28T18:54:39.909Z,15
2017-05-28T18:55:39.254Z,15
2017-05-28T18:56:38.993Z,15
2017-05-28T18:57:39.553Z,10
2017-05-28T18:58:39.486Z,10
2017-05-28T18:59:40.110Z,10
2017-05-28T19:00:40.167Z,10
2017-05-28T19:01:39.535Z,10
2017-05-28T19:02:40.023Z,5
2017-05-28T19:03:39.382Z,5
2017-05-28T19:04:40.030Z,5
2017-05-28T19:05:40.782Z,5
2017-05-28T19:06:39.262Z,5
2017-05-28T19:07:40.126Z,5
2017-05-28T19:08:40.474Z,5
2017-05-28T19:09:39.842Z,5
2017-05-28T19:10:40.610Z,5
2017-05-28T19:11:38.870Z,5
2017-05-28T19:12:40.242Z,0
2017-05-28T19:13:39.611Z,0
2017-05-28T19:14:39.629Z,0
2017-05-28T19:15:40.205Z,0
2017-05-28T19:16:39.334Z,0
2017-05-28T19:17:39.200Z,0
2017-05-28T19:18:39.517Z,0
2017-05-28T19:19:39.201Z,0
2017-05-28T19:20:39.517Z,0
2017-05-28T19:21:39.518Z,0
2017-05-28T19:22:39.212Z,0
2017-05-28T19:23:39.526Z,0
2017-05-28T19:24:39.525Z,0
2017-05-28T19:25:39.259Z,0
2017-05-28T19:26:39.540Z,0
2017-05-28T19:27:39.215Z,0
2017-05-28T19:28:39.222Z,0
2017-05-28T19:29:39.534Z,0
2017-05-28T19:30:39.530Z,0
2017-05-28T19:31:39.560Z,0
2017-05-28T19:32:39.862Z,0
2017-05-28T19:33:39.308Z,0
2017-05-28T19:34:39.534Z,0
2017-05-28T19:35:39.541Z,0
2017-05-28T19:36:39.563Z,0
2017-05-28T19:37:39.228Z,0
2017-05-28T19:38:39.556Z,0
2017-05-28T19:39:39.868Z,0
2017-05-28T19:40:38.889Z,0
2017-05-28T19:41:39.541Z,0
2017-05-28T19:42:39.215Z,0
2017-05-28T19:43:39.530Z,0
2017-05-28T19:44:39.224Z,0
2017-05-28T19:45:39.869Z,0
2017-05-28T19:46:39.539Z,0
2017-05-28T19:47:39.858Z,0
2017-05-28T19:48:39.896Z,0
2017-05-28T19:49:39.559Z,0
2017-05-28T19:50:39.235Z,0
2017-05-28T19:51:39.843Z,0
2017-05-28T19:52:39.217Z,0
2017-05-28T19:53:39.580Z,0
2017-05-28T19:54:39.314Z,0
2017-05-28T19:55:39.228Z,0
2017-05-28T19:56:39.223Z,0
2017-05-28T19:57:39.569Z,0
2017-05-28T19:58:39.225Z,0
2017-05-28T19:59:39.863Z,0
2017-05-28T20:00:41.279Z,0
2017-05-28T20:01:38.585Z,0
2017-05-28T20:02:39.566Z,0
2017-05-28T20:03:39.538Z,0
2017-05-28T20:04:40.011Z,0
2017-05-28T20:05:40.567Z,0
2017-05-28T20:06:40.227Z,0
2017-05-28T20:07:39.888Z,0
2017-05-28T20:08:39.221Z,0
2017-05-28T20:09:39.235Z,0
2017-05-28T20:10:38.897Z,0
2017-05-28T20:11:39.551Z,0
2017-05-28T20:12:40.044Z,0
2017-05-28T20:13:39.445Z,0
2017-05-28T20:14:39.835Z,0
2017-05-28T20:15:39.531Z,0
2017-05-28T20:16:39.195Z,0
2017-05-28T20:17:41.228Z,0
2017-05-28T20:18:40.088Z,0
2017-05-28T20:19:39.568Z,0
2017-05-28T20:20:40.476Z,0
2017-05-28T20:21:41.065Z,0
2017-05-28T20:22:39.772Z,0
2017-05-28T20:23:39.008Z,0
2017-05-28T20:24:39.516Z,0
2017-05-28T20:25:39.505Z,0
2017-05-28T20:26:39.983Z,0
2017-05-28T20:27:39.528Z,0
2017-05-28T20:28:39.525Z,0
2017-05-28T20:29:41.098Z,0
2017-05-28T20:30:39.664Z,0
2017-05-28T20:31:38.871Z,0
2017-05-28T20:32:39.498Z,0
2017-05-28T20:33:39.863Z,0
2017-05-28T20:34:39.859Z,0
2017-05-28T20:35:39.792Z,0
2017-05-28T20:36:40.286Z,0
2017-05-28T20:37:39.858Z,0
2017-05-28T20:38:39.532Z,0
2017-05-28T20:39:39.502Z,0
2017-05-28T20:40:39.814Z,0
2017-05-28T20:41:40.208Z,0
2017-05-28T20:42:40.464Z,0
2017-05-28T20:43:38.867Z,0
2017-05-28T20:44:38.846Z,0
2017-05-28T20:45:39.181Z,0
2017-05-28T20:46:41.072Z,0
2017-05-28T20:47:39.174Z,0
2017-05-28T20:48:39.829Z,0
2017-05-28T20:49:38.866Z,0
2017-05-28T20:50:39.802Z,0
2017-05-28T20:51:39.482Z,0
2017-05-28T20:52:39.806Z,0
2017-05-28T20:53:39.474Z,0
2017-05-28T20:54:39.484Z,0
2017-05-28T20:55:39.482Z,0
2017-05-28T20:56:39.486Z,0
2017-05-28T20:57:39.822Z,0
2017-05-28T20:58:39.474Z,0
2017-05-28T20:59:39.479Z,0
2017-05-28T21:00:39.481Z,0
2017-05-28T21:01:39.167Z,0
2017-05-28T21:02:39.160Z,0
2017-05-28T21:03:39.483Z,0
2017-05-28T21:04:39.164Z,0
2017-05-28T21:05:39.179Z,0
2017-05-28T21:06:39.142Z,0
2017-05-28T21:07:39.501Z,0
2017-05-28T21:08:39.153Z,0
2017-05-28T21:09:39.461Z,0
2017-05-28T21:10:39.155Z,0
2017-05-28T21:11:39.137Z,0
2017-05-28T21:12:39.145Z,0
2017-05-28T21:13:39.470Z,0
2017-05-28T21:14:39.140Z,0
2017-05-28T21:15:39.466Z,0
2017-05-28T21:16:39.141Z,0
2017-05-28T21:17:39.500Z,0
2017-05-28T21:18:39.767Z,0
2017-05-28T21:19:39.146Z,0
2017-05-28T21:20:39.141Z,0
2017-05-28T21:21:39.446Z,0
2017-05-28T21:22:39.759Z,0
2017-05-28T21:23:39.132Z,0
2017-05-28T21:24:39.483Z,0
2017-05-28T21:25:39.459Z,0
2017-05-28T21:26:39.115Z,0
2017-05-28T21:27:38.815Z,0
2017-05-28T21:28:38.809Z,0
2017-05-28T21:29:39.770Z,0
2017-05-28T21:30:38.835Z,0
2017-05-28T21:31:39.461Z,0
2017-05-28T21:32:38.820Z,0
2017-05-28T21:33:39.452Z,0
2017-05-28T21:34:39.774Z,0
2017-05-28T21:35:39.425Z,0
2017-05-28T21:36:38.797Z,0
2017-05-28T21:37:38.815Z,0
2017-05-28T21:38:39.445Z,0
2017-05-28T21:39:39.432Z,0
2017-05-28T21:40:39.108Z,0
2017-05-28T21:41:39.101Z,0
2017-05-28T21:42:39.421Z,0
2017-05-28T21:43:39.414Z,0
2017-05-28T21:44:39.087Z,0
2017-05-28T21:45:39.408Z,0
2017-05-28T21:46:39.725Z,0
2017-05-28T21:47:39.726Z,0
2017-05-28T21:48:39.765Z,0
2017-05-28T21:49:39.414Z,0
2017-05-28T21:50:39.429Z,0
2017-05-28T21:51:39.101Z,0
2017-05-28T21:52:39.410Z,0
2017-05-28T21:53:39.105Z,0
2017-05-28T21:54:39.729Z,0
2017-05-28T21:55:39.079Z,0
2017-05-28T21:56:39.403Z,0
2017-05-28T21:57:39.409Z,0
2017-05-28T21:58:39.415Z,0
2017-05-28T21:59:39.063Z,0
2017-05-28T22:00:38.795Z,0
2017-05-28T22:01:39.758Z,0
2017-05-28T22:02:39.773Z,0
2017-05-28T22:03:39.428Z,0
2017-05-28T22:04:39.078Z,0
2017-05-28T22:05:38.791Z,0
2017-05-28T22:06:38.731Z,0
2017-05-28T22:07:39.067Z,0
2017-05-28T22:08:39.708Z,0
2017-05-28T22:09:39.385Z,0
2017-05-28T22:10:39.689Z,0
2017-05-28T22:11:39.714Z,0
2017-05-28T22:12:39.400Z,0
2017-05-28T22:13:39.390Z,0
2017-05-28T22:14:39.054Z,0
2017-05-28T22:15:39.705Z,0
2017-05-28T22:16:39.727Z,0
2017-05-28T22:17:39.702Z,0
2017-05-28T22:18:39.687Z,0
2017-05-28T22:19:39.675Z,0
2017-05-28T22:20:39.045Z,0
2017-05-28T22:21:39.031Z,0
2017-05-28T22:22:39.043Z,0
2017-05-28T22:23:39.675Z,0
2017-05-28T22:24:39.056Z,0
2017-05-28T22:25:39.054Z,0
2017-05-28T22:26:39.354Z,0
2017-05-28T22:27:38.689Z,0
2017-05-28T22:28:39.345Z,0
2017-05-28T22:29:39.031Z,0
2017-05-28T22:30:39.649Z,0
2017-05-28T22:31:38.681Z,0
2017-05-28T22:32:40.373Z,0
2017-05-28T22:33:38.999Z,0
2017-05-28T22:34:39.672Z,0
2017-05-28T22:35:39.321Z,0
2017-05-28T22:36:39.051Z,0
2017-05-28T22:37:38.686Z,0
2017-05-28T22:38:39.413Z,0
2017-05-28T22:39:38.994Z,0
2017-05-28T22:40:39.347Z,0
2017-05-28T22:41:39.307Z,0
2017-05-28T22:42:38.984Z,0
2017-05-28T22:43:39.029Z,0
2017-05-28T22:44:38.978Z,0
2017-05-28T22:45:38.979Z,0
2017-05-28T22:46:38.974Z,0
2017-05-28T22:47:39.616Z,0
2017-05-28T22:48:39.053Z,0
2017-05-28T22:49:39.782Z,0
2017-05-28T22:50:39.613Z,0
2017-05-28T22:51:39.614Z,0
2017-05-28T22:52:39.298Z,0
2017-05-28T22:53:39.294Z,0
2017-05-28T22:54:39.204Z,0
2017-05-28T22:55:38.968Z,0
2017-05-28T22:56:39.648Z,0
2017-05-28T22:57:39.287Z,0
2017-05-28T22:58:38.652Z,0
2017-05-28T22:59:38.984Z,0
2017-05-28T23:00:40.684Z,0
2017-05-28T23:01:38.943Z,0
2017-05-28T23:02:39.304Z,0
2017-05-28T23:03:39.282Z,0
2017-05-28T23:04:38.934Z,0
2017-05-28T23:05:40.512Z,0
2017-05-28T23:06:40.968Z,0
2017-05-28T23:07:38.952Z,0
2017-05-28T23:08:38.928Z,0
2017-05-28T23:09:39.250Z,0
2017-05-28T23:10:39.257Z,0
2017-05-28T23:11:41.115Z,0
2017-05-28T23:12:39.094Z,0
2017-05-28T23:13:39.258Z,0
2017-05-28T23:14:38.597Z,0
2017-05-28T23:15:38.913Z,0
2017-05-28T23:16:40.225Z,0
2017-05-28T23:17:41.147Z,0
2017-05-28T23:18:39.346Z,0
2017-05-28T23:19:39.244Z,0
2017-05-28T23:20:38.914Z,0
2017-05-28T23:21:39.375Z,0
2017-05-28T23:22:39.941Z,0
2017-05-28T23:23:41.079Z,0
2017-05-28T23:24:39.677Z,0
2017-05-28T23:25:39.555Z,0
2017-05-28T23:26:39.219Z,0
2017-05-28T23:27:39.551Z,0
2017-05-28T23:28:39.212Z,0
2017-05-28T23:29:40.469Z,0
2017-05-28T23:30:40.881Z,0
2017-05-28T23:31:39.372Z,0
2017-05-28T23:32:38.878Z,0
2017-05-28T23:33:39.208Z,0
2017-05-28T23:34:38.897Z,0
2017-05-28T23:35:39.963Z,0
2017-05-28T23:36:40.461Z,0
2017-05-28T23:37:40.031Z,0
2017-05-28T23:38:38.889Z,0
2017-05-28T23:39:38.875Z,0
2017-05-28T23:40:38.895Z,0
2017-05-28T23:41:40.015Z,0
2017-05-28T23:42:40.805Z,0
2017-05-28T23:43:39.509Z,0
2017-05-28T23:44:39.193Z,0
2017-05-28T23:45:39.234Z,0
2017-05-28T23:46:39.170Z,0
2017-05-28T23:47:38.901Z,0
2017-05-28T23:48:40.480Z,0
2017-05-28T23:49:38.581Z,0
2017-05-28T23:50:39.731Z,0
2017-05-28T23:51:38.876Z,0
2017-05-28T23:52:40.271Z,0
2017-05-28T23:53:40.220Z,0
2017-05-28T23:54:38.516Z,0
2017-05-28T23:55:38.501Z,0
2017-05-28T23:56:38.500Z,0
2017-05-28T23:57:39.474Z,0
2017-05-28T23:58:39.932Z,0
2017-05-28T23:59:39.458Z,0
